createdAt,value
2019-03-25T00:01:06.037Z,5.60
2019-03-25T00:03:34.645Z,5.60
2019-03-25T00:06:03.217Z,5.70
2019-03-25T00:08:31.745Z,5.80
2019-03-25T00:11:00.202Z,5.90
2019-03-25T00:13:28.705Z,6.00
2019-03-25T00:15:57.240Z,6.00
2019-03-25T00:18:25.802Z,6.00
2019-03-25T00:20:54.257Z,5.90
2019-03-25T00:23:22.760Z,5.80
2019-03-25T00:25:51.294Z,5.80
2019-03-25T00:28:19.857Z,5.70
2019-03-25T00:30:48.386Z,5.50
2019-03-25T00:33:17.097Z,5.40
2019-03-25T00:35:45.625Z,5.30
2019-03-25T00:38:14.126Z,5.30
2019-03-25T00:40:42.657Z,5.20
2019-03-25T00:43:11.153Z,5.10
2019-03-25T00:45:39.721Z,5.10
2019-03-25T00:48:08.177Z,5.20
2019-03-25T00:50:36.669Z,5.20
2019-03-25T00:53:05.131Z,5.30
2019-03-25T00:55:33.716Z,5.30
2019-03-25T00:58:02.234Z,5.00
2019-03-25T01:00:30.875Z,4.90
2019-03-25T01:02:59.420Z,4.80
2019-03-25T01:05:28.043Z,4.90
2019-03-25T01:07:56.569Z,5.00
2019-03-25T01:10:25.202Z,5.00
2019-03-25T01:12:53.844Z,5.10
2019-03-25T01:15:22.383Z,5.10
2019-03-25T01:17:50.949Z,5.10
2019-03-25T01:20:19.520Z,5.10
2019-03-25T01:22:48.861Z,5.20
2019-03-25T01:25:17.426Z,5.20
2019-03-25T01:27:46.002Z,5.10
2019-03-25T01:30:14.782Z,5.00
2019-03-25T01:32:43.346Z,5.00
2019-03-25T01:35:12.014Z,5.10
2019-03-25T01:37:40.656Z,5.00
2019-03-25T01:40:09.832Z,4.90
2019-03-25T01:42:38.359Z,4.90
2019-03-25T01:45:07.894Z,4.80
2019-03-25T01:47:36.457Z,4.80
2019-03-25T01:50:07.268Z,4.80
2019-03-25T01:52:35.802Z,4.90
2019-03-25T01:55:12.989Z,4.90
2019-03-25T01:57:34.993Z,5.00
2019-03-25T02:00:05.617Z,4.80
2019-03-25T02:02:34.146Z,4.80
2019-03-25T02:05:02.638Z,4.80
2019-03-25T02:07:31.170Z,4.90
2019-03-25T02:09:59.741Z,4.90
2019-03-25T02:12:28.270Z,4.70
2019-03-25T02:14:56.778Z,4.50
2019-03-25T02:17:25.312Z,4.50
2019-03-25T02:19:53.877Z,4.40
2019-03-25T02:22:22.338Z,4.30
2019-03-25T02:24:50.924Z,4.20
2019-03-25T02:27:19.458Z,4.10
2019-03-25T02:29:47.918Z,4.00
2019-03-25T02:32:16.492Z,3.70
2019-03-25T02:34:45.039Z,3.50
2019-03-25T02:37:13.618Z,3.70
2019-03-25T02:39:42.151Z,3.80
2019-03-25T02:42:10.685Z,4.00
2019-03-25T02:44:39.274Z,4.30
2019-03-25T02:47:07.807Z,4.40
2019-03-25T02:49:36.367Z,4.30
2019-03-25T02:52:04.907Z,4.30
2019-03-25T02:54:33.483Z,4.40
2019-03-25T02:57:02.019Z,4.40
2019-03-25T02:59:30.590Z,4.60
2019-03-25T03:01:59.051Z,4.60
2019-03-25T03:04:27.626Z,4.70
2019-03-25T03:06:56.159Z,4.70
2019-03-25T03:09:24.744Z,4.70
2019-03-25T03:11:53.270Z,4.70
2019-03-25T03:14:21.732Z,4.70
2019-03-25T03:16:50.307Z,4.80
2019-03-25T03:19:18.843Z,4.70
2019-03-25T03:21:47.406Z,4.70
2019-03-25T03:24:15.871Z,4.70
2019-03-25T03:26:44.460Z,4.60
2019-03-25T03:29:12.978Z,4.50
2019-03-25T03:31:41.560Z,4.50
2019-03-25T03:34:10.125Z,4.70
2019-03-25T03:36:38.672Z,4.80
2019-03-25T03:39:07.339Z,4.60
2019-03-25T03:41:36.155Z,4.80
2019-03-25T03:44:04.695Z,4.70
2019-03-25T03:46:33.259Z,4.70
2019-03-25T03:49:01.868Z,4.40
2019-03-25T03:51:30.601Z,4.50
2019-03-25T03:53:59.183Z,4.50
2019-03-25T03:56:28.399Z,4.50
2019-03-25T03:58:57.175Z,4.60
2019-03-25T04:01:25.706Z,4.60
2019-03-25T04:03:54.291Z,4.70
2019-03-25T04:06:23.754Z,4.60
2019-03-25T04:08:52.333Z,4.60
2019-03-25T04:11:20.869Z,4.60
2019-03-25T04:13:49.439Z,4.50
2019-03-25T04:16:17.971Z,4.40
2019-03-25T04:18:46.573Z,4.40
2019-03-25T04:21:15.106Z,4.40
2019-03-25T04:23:46.272Z,4.40
2019-03-25T04:26:27.726Z,4.40
2019-03-25T04:28:44.018Z,4.30
2019-03-25T04:31:12.562Z,4.20
2019-03-25T04:33:41.122Z,4.20
2019-03-25T04:36:09.659Z,4.00
2019-03-25T04:38:38.239Z,4.10
2019-03-25T04:41:06.781Z,4.20
2019-03-25T04:43:35.355Z,4.00
2019-03-25T04:46:03.818Z,3.90
2019-03-25T04:48:32.403Z,3.80
2019-03-25T04:51:00.967Z,3.90
2019-03-25T04:53:29.506Z,4.00
2019-03-25T04:55:58.077Z,3.90
2019-03-25T04:58:26.534Z,3.90
2019-03-25T05:00:55.105Z,3.80
2019-03-25T05:03:23.570Z,4.00
2019-03-25T05:05:52.138Z,3.70
2019-03-25T05:08:20.595Z,3.70
2019-03-25T05:10:49.181Z,3.70
2019-03-25T05:13:17.718Z,3.90
2019-03-25T05:15:46.246Z,3.90
2019-03-25T05:18:14.820Z,4.10
2019-03-25T05:20:43.366Z,4.10
2019-03-25T05:23:11.942Z,4.20
2019-03-25T05:25:40.643Z,4.20
2019-03-25T05:28:09.222Z,4.30
2019-03-25T05:30:37.795Z,4.30
2019-03-25T05:33:06.376Z,4.30
2019-03-25T05:35:34.910Z,4.30
2019-03-25T05:38:03.483Z,4.40
2019-03-25T05:40:32.059Z,4.30
2019-03-25T05:43:00.594Z,4.40
2019-03-25T05:45:29.094Z,4.50
2019-03-25T05:47:57.633Z,4.50
2019-03-25T05:50:26.210Z,4.50
2019-03-25T05:52:54.671Z,4.60
2019-03-25T05:55:23.237Z,4.60
2019-03-25T05:57:51.703Z,4.60
2019-03-25T06:00:23.129Z,4.60
2019-03-25T06:02:51.630Z,4.60
2019-03-25T06:05:20.219Z,4.60
2019-03-25T06:07:48.757Z,4.70
2019-03-25T06:10:17.499Z,4.60
2019-03-25T06:12:46.047Z,4.60
2019-03-25T06:15:14.834Z,4.60
2019-03-25T06:17:43.406Z,4.50
2019-03-25T06:20:12.311Z,4.50
2019-03-25T06:22:40.895Z,4.50
2019-03-25T06:25:09.683Z,4.60
2019-03-25T06:27:38.211Z,4.60
2019-03-25T06:30:09.248Z,4.70
2019-03-25T06:32:37.818Z,4.70
2019-03-25T06:35:08.954Z,4.50
2019-03-25T06:37:37.369Z,4.60
2019-03-25T06:40:08.083Z,4.80
2019-03-25T06:42:36.619Z,4.90
2019-03-25T06:45:08.205Z,5.00
2019-03-25T06:47:36.811Z,5.10
2019-03-25T06:50:08.984Z,5.30
2019-03-25T06:52:37.523Z,5.50
2019-03-25T06:55:13.705Z,5.60
2019-03-25T06:57:42.297Z,5.70
2019-03-25T07:00:12.168Z,5.80
2019-03-25T07:02:40.702Z,5.90
2019-03-25T07:05:10.027Z,5.90
2019-03-25T07:07:38.598Z,5.90
2019-03-25T07:10:08.699Z,5.90
2019-03-25T07:12:37.818Z,6.00
2019-03-25T07:15:08.189Z,6.00
2019-03-25T07:17:36.767Z,6.10
2019-03-25T07:20:08.146Z,6.10
2019-03-25T07:22:36.761Z,6.10
2019-03-25T07:25:06.278Z,6.10
2019-03-25T07:27:36.955Z,6.10
2019-03-25T07:30:07.617Z,6.20
2019-03-25T07:32:36.154Z,6.20
2019-03-25T07:35:06.776Z,6.20
2019-03-25T07:37:35.313Z,6.40
2019-03-25T07:40:07.874Z,6.40
2019-03-25T07:42:36.409Z,6.30
2019-03-25T07:45:08.058Z,6.30
2019-03-25T07:47:36.523Z,6.30
2019-03-25T07:50:06.997Z,6.30
2019-03-25T07:52:35.584Z,6.30
2019-03-25T07:55:05.256Z,6.20
2019-03-25T07:57:33.866Z,6.20
2019-03-25T08:00:13.228Z,6.10
2019-03-25T08:02:32.810Z,5.80
2019-03-25T08:05:01.406Z,5.70
2019-03-25T08:07:29.953Z,5.80
2019-03-25T08:09:58.462Z,5.90
2019-03-25T08:12:27.087Z,5.80
2019-03-25T08:14:55.599Z,5.90
2019-03-25T08:17:24.124Z,5.90
2019-03-25T08:19:52.706Z,6.00
2019-03-25T08:22:21.232Z,6.00
2019-03-25T08:24:49.827Z,5.90
2019-03-25T08:27:18.432Z,6.10
2019-03-25T08:29:47.075Z,6.00
2019-03-25T08:32:15.612Z,5.90
2019-03-25T08:34:44.184Z,5.90
2019-03-25T08:37:12.713Z,5.80
2019-03-25T08:39:41.266Z,5.90
2019-03-25T08:42:09.728Z,6.10
2019-03-25T08:44:38.305Z,6.30
2019-03-25T08:47:06.835Z,6.70
2019-03-25T08:49:35.416Z,7.00
2019-03-25T08:52:04.115Z,7.30
2019-03-25T08:54:32.698Z,7.20
2019-03-25T08:57:01.343Z,7.30
2019-03-25T08:59:29.849Z,7.50
2019-03-25T09:01:58.429Z,7.30
2019-03-25T09:04:26.935Z,7.30
2019-03-25T09:06:55.491Z,7.40
2019-03-25T09:09:24.834Z,7.40
2019-03-25T09:11:53.438Z,7.50
2019-03-25T09:14:22.031Z,7.50
2019-03-25T09:16:50.552Z,7.90
2019-03-25T09:19:19.190Z,8.00
2019-03-25T09:21:47.739Z,8.20
2019-03-25T09:24:16.542Z,8.10
2019-03-25T09:26:45.077Z,8.00
2019-03-25T09:29:13.651Z,7.80
2019-03-25T09:31:42.206Z,7.90
2019-03-25T09:34:10.922Z,8.30
2019-03-25T09:36:39.453Z,8.50
2019-03-25T09:39:08.376Z,8.80
2019-03-25T09:41:36.947Z,9.30
2019-03-25T09:44:05.618Z,9.60
2019-03-25T09:46:34.262Z,9.30
2019-03-25T09:49:02.871Z,9.10
2019-03-25T09:51:31.453Z,9.10
2019-03-25T09:54:00.154Z,9.40
2019-03-25T09:56:28.735Z,9.40
2019-03-25T09:58:57.505Z,9.20
2019-03-25T10:01:26.006Z,9.20
2019-03-25T10:03:54.541Z,9.50
2019-03-25T10:06:23.121Z,10.10
2019-03-25T10:08:51.723Z,10.20
2019-03-25T10:11:20.258Z,10.20
2019-03-25T10:13:48.843Z,10.50
2019-03-25T10:16:17.384Z,10.70
2019-03-25T10:18:45.955Z,10.60
2019-03-25T10:21:14.582Z,10.40
2019-03-25T10:23:43.262Z,9.80
2019-03-25T10:26:11.986Z,9.30
2019-03-25T10:28:48.668Z,9.30
2019-03-25T10:31:10.707Z,9.40
2019-03-25T10:33:39.366Z,9.30
2019-03-25T10:36:07.899Z,9.40
2019-03-25T10:38:36.433Z,9.50
2019-03-25T10:41:05.000Z,9.80
2019-03-25T10:43:33.462Z,10.10
2019-03-25T10:46:02.050Z,10.30
2019-03-25T10:48:30.578Z,10.10
2019-03-25T10:50:59.039Z,10.20
2019-03-25T10:53:27.618Z,10.10
2019-03-25T10:55:56.154Z,9.90
2019-03-25T10:58:24.726Z,9.90
2019-03-25T11:00:53.266Z,9.60
2019-03-25T11:03:21.835Z,9.00
2019-03-25T11:05:50.374Z,9.40
2019-03-25T11:08:18.875Z,9.70
2019-03-25T11:10:47.333Z,9.90
2019-03-25T11:13:15.903Z,9.70
2019-03-25T11:15:44.437Z,9.90
2019-03-25T11:18:13.020Z,9.90
2019-03-25T11:20:41.542Z,9.40
2019-03-25T11:23:10.181Z,8.80
2019-03-25T11:25:38.644Z,8.60
2019-03-25T11:28:07.222Z,8.20
2019-03-25T11:30:50.038Z,8.30
2019-03-25T11:33:18.535Z,8.40
2019-03-25T11:35:47.069Z,8.40
2019-03-25T11:38:15.571Z,8.60
2019-03-25T11:40:44.170Z,8.40
2019-03-25T11:43:12.761Z,8.20
2019-03-25T11:45:41.221Z,8.00
2019-03-25T11:48:09.750Z,8.30
2019-03-25T11:50:38.249Z,8.60
2019-03-25T11:53:06.709Z,8.70
2019-03-25T11:55:35.286Z,8.80
2019-03-25T11:58:03.818Z,8.50
2019-03-25T12:00:32.386Z,8.60
2019-03-25T12:03:00.920Z,8.50
2019-03-25T12:05:29.494Z,8.50
2019-03-25T12:07:58.061Z,8.40
2019-03-25T12:10:26.634Z,8.90
2019-03-25T12:12:55.095Z,9.20
2019-03-25T12:15:23.666Z,9.30
2019-03-25T12:17:52.202Z,9.30
2019-03-25T12:20:21.082Z,9.70
2019-03-25T12:22:49.614Z,9.90
2019-03-25T12:25:18.127Z,10.00
2019-03-25T12:27:46.663Z,10.30
2019-03-25T12:30:15.806Z,10.50
2019-03-25T12:32:44.265Z,10.80
2019-03-25T12:35:12.910Z,11.10
2019-03-25T12:37:41.498Z,11.40
2019-03-25T12:40:10.278Z,10.80
2019-03-25T12:42:38.862Z,11.00
2019-03-25T12:45:08.459Z,11.20
2019-03-25T12:47:37.040Z,10.90
2019-03-25T12:50:07.706Z,10.70
2019-03-25T12:52:36.392Z,10.60
2019-03-25T12:55:07.261Z,10.40
2019-03-25T12:57:35.836Z,10.00
2019-03-25T13:00:06.809Z,9.60
2019-03-25T13:02:35.390Z,9.40
2019-03-25T13:05:05.460Z,9.00
2019-03-25T13:07:34.031Z,8.60
2019-03-25T13:10:02.573Z,8.50
2019-03-25T13:12:32.685Z,8.30
2019-03-25T13:15:01.215Z,8.20
2019-03-25T13:17:29.787Z,7.90
2019-03-25T13:19:58.318Z,8.00
2019-03-25T13:22:26.957Z,8.60
2019-03-25T13:24:55.414Z,8.90
2019-03-25T13:27:23.989Z,9.10
2019-03-25T13:29:53.059Z,9.40
2019-03-25T13:32:21.757Z,9.40
2019-03-25T13:34:50.225Z,9.50
2019-03-25T13:37:18.751Z,9.50
2019-03-25T13:39:47.323Z,9.60
2019-03-25T13:42:15.857Z,9.70
2019-03-25T13:44:44.360Z,9.90
2019-03-25T13:47:12.902Z,10.20
2019-03-25T13:49:41.474Z,10.50
2019-03-25T13:52:10.013Z,10.50
2019-03-25T13:54:38.600Z,10.20
2019-03-25T13:57:07.133Z,10.30
2019-03-25T13:59:35.698Z,10.40
2019-03-25T14:02:04.164Z,10.10
2019-03-25T14:04:32.738Z,9.40
2019-03-25T14:07:03.798Z,9.00
2019-03-25T14:09:31.509Z,8.90
2019-03-25T14:12:00.082Z,8.20
2019-03-25T14:14:28.613Z,8.00
2019-03-25T14:16:57.118Z,7.80
2019-03-25T14:19:25.720Z,7.50
2019-03-25T14:21:54.296Z,7.60
2019-03-25T14:24:22.825Z,7.90
2019-03-25T14:26:51.338Z,8.20
2019-03-25T14:29:19.854Z,8.50
2019-03-25T14:31:48.431Z,8.60
2019-03-25T14:34:16.971Z,8.90
2019-03-25T14:36:45.626Z,8.90
2019-03-25T14:39:14.163Z,9.20
2019-03-25T14:41:42.775Z,9.30
2019-03-25T14:44:11.421Z,9.30
2019-03-25T14:46:39.990Z,9.30
2019-03-25T14:49:09.906Z,9.20
2019-03-25T14:51:38.526Z,9.20
2019-03-25T14:54:07.054Z,9.10
2019-03-25T14:56:35.557Z,8.90
2019-03-25T14:59:04.058Z,9.00
2019-03-25T15:01:32.619Z,9.20
2019-03-25T15:04:01.195Z,9.20
2019-03-25T15:06:29.738Z,9.30
2019-03-25T15:08:58.849Z,9.30
2019-03-25T15:11:27.433Z,9.30
2019-03-25T15:13:55.965Z,9.30
2019-03-25T15:16:24.576Z,9.30
2019-03-25T15:18:53.138Z,9.30
2019-03-25T15:21:21.690Z,9.30
2019-03-25T15:23:50.170Z,9.20
2019-03-25T15:26:18.675Z,9.40
2019-03-25T15:28:47.251Z,9.60
2019-03-25T15:31:15.705Z,9.90
2019-03-25T15:33:45.061Z,9.70
2019-03-25T15:36:13.557Z,9.40
2019-03-25T15:38:42.070Z,9.30
2019-03-25T15:41:10.608Z,9.10
2019-03-25T15:43:39.175Z,8.80
2019-03-25T15:46:07.713Z,8.70
2019-03-25T15:48:36.242Z,8.60
2019-03-25T15:51:04.742Z,8.70
2019-03-25T15:53:33.279Z,8.70
2019-03-25T15:56:01.852Z,8.80
2019-03-25T15:58:30.979Z,8.70
2019-03-25T16:00:59.518Z,8.70
2019-03-25T16:03:28.049Z,8.60
2019-03-25T16:05:56.560Z,8.40
2019-03-25T16:08:25.167Z,8.40
2019-03-25T16:10:53.696Z,8.20
2019-03-25T16:13:22.304Z,8.30
2019-03-25T16:15:51.251Z,8.30
2019-03-25T16:18:37.522Z,8.40
2019-03-25T16:21:06.282Z,8.20
2019-03-25T16:23:34.880Z,7.90
2019-03-25T16:26:03.335Z,7.80
2019-03-25T16:28:32.334Z,7.60
2019-03-25T16:31:00.873Z,7.50
2019-03-25T16:33:29.434Z,7.30
2019-03-25T16:35:58.120Z,7.20
2019-03-25T16:38:26.677Z,7.00
2019-03-25T16:40:55.209Z,6.90
2019-03-25T16:43:23.778Z,6.70
2019-03-25T16:45:52.311Z,6.60
2019-03-25T16:48:20.888Z,6.80
2019-03-25T16:50:49.412Z,6.80
2019-03-25T16:53:17.978Z,6.90
2019-03-25T16:55:46.578Z,6.80
2019-03-25T16:58:15.072Z,6.80
2019-03-25T17:00:43.606Z,6.80
2019-03-25T17:03:12.166Z,6.70
2019-03-25T17:05:42.467Z,6.70
2019-03-25T17:08:10.914Z,6.70
2019-03-25T17:10:39.452Z,6.60
2019-03-25T17:13:08.014Z,6.60
2019-03-25T17:15:36.583Z,6.40
2019-03-25T17:18:05.338Z,6.40
2019-03-25T17:20:33.875Z,6.40
2019-03-25T17:23:02.628Z,6.40
2019-03-25T17:25:31.157Z,6.30
2019-03-25T17:27:59.663Z,6.30
2019-03-25T17:30:28.381Z,6.30
2019-03-25T17:32:56.841Z,6.40
2019-03-25T17:35:25.413Z,6.40
2019-03-25T17:37:54.062Z,6.40
2019-03-25T17:40:22.729Z,6.40
2019-03-25T17:42:51.303Z,6.40
2019-03-25T17:45:20.622Z,6.20
2019-03-25T17:47:49.158Z,6.40
2019-03-25T17:50:18.119Z,6.30
2019-03-25T17:52:46.650Z,6.20
2019-03-25T17:55:16.747Z,6.20
2019-03-25T17:57:45.320Z,6.30
2019-03-25T18:00:15.958Z,6.20
2019-03-25T18:02:44.970Z,6.20
2019-03-25T18:05:13.650Z,6.40
2019-03-25T18:07:42.223Z,6.40
2019-03-25T18:10:11.398Z,6.50
2019-03-25T18:12:39.859Z,6.30
2019-03-25T18:15:12.093Z,6.30
2019-03-25T18:17:40.630Z,6.30
2019-03-25T18:20:18.174Z,6.20
2019-03-25T18:22:40.171Z,6.30
2019-03-25T18:25:09.381Z,6.30
2019-03-25T18:27:37.909Z,6.30
2019-03-25T18:30:08.350Z,6.00
2019-03-25T18:32:36.889Z,6.00
2019-03-25T18:35:06.795Z,6.00
2019-03-25T18:37:35.368Z,6.10
2019-03-25T18:40:04.441Z,6.20
2019-03-25T18:42:33.086Z,6.20
2019-03-25T18:45:01.698Z,6.10
2019-03-25T18:47:30.286Z,6.10
2019-03-25T18:49:58.822Z,6.10
2019-03-25T18:52:27.363Z,6.10
2019-03-25T18:54:55.946Z,6.20
2019-03-25T18:57:24.480Z,6.10
2019-03-25T18:59:53.087Z,6.20
2019-03-25T19:02:21.640Z,6.10
2019-03-25T19:04:50.203Z,6.10
2019-03-25T19:07:19.073Z,6.10
2019-03-25T19:09:47.794Z,6.10
2019-03-25T19:12:16.334Z,6.10
2019-03-25T19:14:44.915Z,5.90
2019-03-25T19:17:14.037Z,5.90
2019-03-25T19:19:42.643Z,5.80
2019-03-25T19:22:12.779Z,5.90
2019-03-25T19:24:44.410Z,5.80
2019-03-25T19:27:12.996Z,5.80
2019-03-25T19:29:41.517Z,5.80
2019-03-25T19:32:10.124Z,5.80
2019-03-25T19:34:38.671Z,5.70
2019-03-25T19:37:07.282Z,5.70
2019-03-25T19:39:35.845Z,5.70
2019-03-25T19:42:04.408Z,5.50
2019-03-25T19:44:32.941Z,5.60
2019-03-25T19:47:01.505Z,5.50
2019-03-25T19:49:30.049Z,5.40
2019-03-25T19:51:58.562Z,5.40
2019-03-25T19:54:27.100Z,5.50
2019-03-25T19:56:55.650Z,5.60
2019-03-25T19:59:24.205Z,5.60
2019-03-25T20:01:52.750Z,5.60
2019-03-25T20:04:21.281Z,5.60
2019-03-25T20:06:49.881Z,5.60
2019-03-25T20:09:18.381Z,5.60
2019-03-25T20:11:46.953Z,5.70
2019-03-25T20:14:15.458Z,5.60
2019-03-25T20:16:43.940Z,5.70
2019-03-25T20:19:12.486Z,5.80
2019-03-25T20:21:41.034Z,5.80
2019-03-25T20:24:09.573Z,5.70
2019-03-25T20:26:38.132Z,5.60
2019-03-25T20:29:06.784Z,5.60
2019-03-25T20:31:35.293Z,5.70
2019-03-25T20:34:10.912Z,5.60
2019-03-25T20:36:34.209Z,5.60
2019-03-25T20:39:03.012Z,5.60
2019-03-25T20:41:31.597Z,5.70
2019-03-25T20:44:00.140Z,5.60
2019-03-25T20:46:28.674Z,5.60
2019-03-25T20:48:57.202Z,5.50
2019-03-25T20:51:25.770Z,5.70
2019-03-25T20:53:54.235Z,5.70
2019-03-25T20:56:22.761Z,5.70
2019-03-25T20:58:51.271Z,5.60
2019-03-25T21:01:19.783Z,5.50
2019-03-25T21:03:48.342Z,5.60
2019-03-25T21:06:16.838Z,5.70
2019-03-25T21:08:45.387Z,5.70
2019-03-25T21:11:13.905Z,5.70
2019-03-25T21:13:42.468Z,5.70
2019-03-25T21:16:10.994Z,5.70
2019-03-25T21:18:39.509Z,5.70
2019-03-25T21:21:08.009Z,5.80
2019-03-25T21:23:36.494Z,5.80
2019-03-25T21:26:05.044Z,5.60
2019-03-25T21:28:33.864Z,5.60
2019-03-25T21:31:02.397Z,5.60
2019-03-25T21:33:31.055Z,5.60
2019-03-25T21:35:59.574Z,5.60
2019-03-25T21:38:28.185Z,5.60
2019-03-25T21:40:56.718Z,5.50
2019-03-25T21:43:25.215Z,5.50
2019-03-25T21:45:53.738Z,5.40
2019-03-25T21:48:22.302Z,5.30
2019-03-25T21:50:50.900Z,5.30
2019-03-25T21:53:19.610Z,5.30
2019-03-25T21:55:48.138Z,5.20
2019-03-25T21:58:16.688Z,5.20
2019-03-25T22:00:45.246Z,5.30
2019-03-25T22:03:13.707Z,5.30
2019-03-25T22:05:42.277Z,5.20
2019-03-25T22:08:10.746Z,5.20
2019-03-25T22:10:39.306Z,5.40
2019-03-25T22:13:07.905Z,5.30
2019-03-25T22:15:36.482Z,5.30
2019-03-25T22:18:05.009Z,5.30
2019-03-25T22:20:33.497Z,5.30
2019-03-25T22:23:02.030Z,5.50
2019-03-25T22:25:30.655Z,5.50
2019-03-25T22:27:59.184Z,5.40
2019-03-25T22:30:27.670Z,5.50
2019-03-25T22:32:56.202Z,5.50
2019-03-25T22:35:24.690Z,5.60
2019-03-25T22:37:53.157Z,5.60
2019-03-25T22:40:21.731Z,5.60
2019-03-25T22:42:50.262Z,5.60
2019-03-25T22:45:21.897Z,5.60
2019-03-25T22:47:50.429Z,5.50
2019-03-25T22:50:27.302Z,5.50
2019-03-25T22:52:55.930Z,5.50
2019-03-25T22:55:24.507Z,5.40
2019-03-25T22:57:53.035Z,5.40
2019-03-25T23:00:25.075Z,5.30
2019-03-25T23:02:53.874Z,5.30
2019-03-25T23:05:22.447Z,5.30
2019-03-25T23:07:50.983Z,5.30
2019-03-25T23:10:19.522Z,5.30
2019-03-25T23:12:48.083Z,5.30
2019-03-25T23:15:16.626Z,5.30
2019-03-25T23:17:45.182Z,5.30
2019-03-25T23:20:13.777Z,5.40
2019-03-25T23:22:42.266Z,5.40
2019-03-25T23:25:10.862Z,5.40
2019-03-25T23:27:39.423Z,5.50
2019-03-25T23:30:08.318Z,5.30
2019-03-25T23:32:36.815Z,5.40
2019-03-25T23:35:06.493Z,5.40
2019-03-25T23:37:35.215Z,5.40
2019-03-25T23:40:07.595Z,5.40
2019-03-25T23:42:36.166Z,5.40
2019-03-25T23:45:06.634Z,5.50
2019-03-25T23:47:35.122Z,5.40
2019-03-25T23:50:05.423Z,5.40
2019-03-25T23:52:33.984Z,5.40
2019-03-25T23:55:02.516Z,5.30
2019-03-25T23:57:31.080Z,5.40
2019-03-25T23:59:59.610Z,5.50
